sensor_id;sensor_type;location;lat;lon;timestamp;temperature;humidity
38209;DHT22;24016;52.102;11.584;2022-10-16T00:02:05;13.90;99.90
38209;DHT22;24016;52.102;11.584;2022-10-16T00:04:31;13.80;99.90
38209;DHT22;24016;52.102;11.584;2022-10-16T00:06:56;13.80;99.90
38209;DHT22;24016;52.102;11.584;2022-10-16T00:09:22;13.80;99.90
38209;DHT22;24016;52.102;11.584;2022-10-16T00:11:48;13.80;99.90
38209;DHT22;24016;52.102;11.584;2022-10-16T00:14:14;13.80;99.90
38209;DHT22;24016;52.102;11.584;2022-10-16T00:16:40;13.80;99.90
38209;DHT22;24016;52.102;11.584;2022-10-16T00:19:06;13.70;99.90
38209;DHT22;24016;52.102;11.584;2022-10-16T00:21:33;13.70;99.90
38209;DHT22;24016;52.102;11.584;2022-10-16T00:24:01;13.60;99.90
38209;DHT22;24016;52.102;11.584;2022-10-16T00:26:29;13.60;99.90
38209;DHT22;24016;52.102;11.584;2022-10-16T00:28:55;13.60;99.90
38209;DHT22;24016;52.102;11.584;2022-10-16T00:31:22;13.70;99.90
38209;DHT22;24016;52.102;11.584;2022-10-16T00:33:49;13.80;99.90
38209;DHT22;24016;52.102;11.584;2022-10-16T00:36:18;13.90;99.90
38209;DHT22;24016;52.102;11.584;2022-10-16T00:38:44;13.80;99.90
38209;DHT22;24016;52.102;11.584;2022-10-16T00:41:13;13.80;99.90
38209;DHT22;24016;52.102;11.584;2022-10-16T00:46:23;13.80;99.90
38209;DHT22;24016;52.102;11.584;2022-10-16T00:49:12;13.70;99.90
38209;DHT22;24016;52.102;11.584;2022-10-16T00:51:49;13.60;99.90
38209;DHT22;24016;52.102;11.584;2022-10-16T00:54:21;13.50;99.90
38209;DHT22;24016;52.102;11.584;2022-10-16T00:56:48;13.50;99.90
38209;DHT22;24016;52.102;11.584;2022-10-16T00:59:38;13.40;99.90
38209;DHT22;24016;52.102;11.584;2022-10-16T01:02:06;13.30;99.90
38209;DHT22;24016;52.102;11.584;2022-10-16T01:04:37;13.20;99.90
38209;DHT22;24016;52.102;11.584;2022-10-16T01:07:29;13.20;99.90
38209;DHT22;24016;52.102;11.584;2022-10-16T01:17:56;13.20;99.90
38209;DHT22;24016;52.102;11.584;2022-10-16T01:20:35;13.20;99.90
38209;DHT22;24016;52.102;11.584;2022-10-16T01:23:27;13.10;99.90
38209;DHT22;24016;52.102;11.584;2022-10-16T01:28:53;13.20;99.90
38209;DHT22;24016;52.102;11.584;2022-10-16T01:31:24;13.10;99.90
38209;DHT22;24016;52.102;11.584;2022-10-16T01:33:58;13.10;99.90
38209;DHT22;24016;52.102;11.584;2022-10-16T01:36:31;13.20;99.90
38209;DHT22;24016;52.102;11.584;2022-10-16T01:39:01;13.30;99.90
38209;DHT22;24016;52.102;11.584;2022-10-16T01:41:34;13.20;99.90
38209;DHT22;24016;52.102;11.584;2022-10-16T01:44:24;13.20;99.90
38209;DHT22;24016;52.102;11.584;2022-10-16T01:46:52;13.10;99.90
38209;DHT22;24016;52.102;11.584;2022-10-16T01:49:19;13.10;99.90
38209;DHT22;24016;52.102;11.584;2022-10-16T01:51:49;13.10;99.90
38209;DHT22;24016;52.102;11.584;2022-10-16T01:54:17;13.10;99.90
38209;DHT22;24016;52.102;11.584;2022-10-16T01:56:46;13.10;99.90
38209;DHT22;24016;52.102;11.584;2022-10-16T01:59:16;13.10;99.90
38209;DHT22;24016;52.102;11.584;2022-10-16T02:01:47;13.00;99.90
38209;DHT22;24016;52.102;11.584;2022-10-16T02:04:24;13.00;99.90
38209;DHT22;24016;52.102;11.584;2022-10-16T02:06:53;12.90;99.90
38209;DHT22;24016;52.102;11.584;2022-10-16T02:09:19;12.90;99.90
38209;DHT22;24016;52.102;11.584;2022-10-16T02:11:45;12.80;99.90
38209;DHT22;24016;52.102;11.584;2022-10-16T02:14:11;12.70;99.90
38209;DHT22;24016;52.102;11.584;2022-10-16T02:16:40;12.70;99.90
38209;DHT22;24016;52.102;11.584;2022-10-16T02:19:07;12.60;99.90
38209;DHT22;24016;52.102;11.584;2022-10-16T02:24:17;12.70;99.90
38209;DHT22;24016;52.102;11.584;2022-10-16T02:26:57;12.60;99.90
38209;DHT22;24016;52.102;11.584;2022-10-16T02:29:26;12.60;99.90
38209;DHT22;24016;52.102;11.584;2022-10-16T02:32:01;12.60;99.90
38209;DHT22;24016;52.102;11.584;2022-10-16T02:34:28;12.60;99.90
38209;DHT22;24016;52.102;11.584;2022-10-16T02:36:56;12.60;99.90
38209;DHT22;24016;52.102;11.584;2022-10-16T02:39:22;12.60;99.90
38209;DHT22;24016;52.102;11.584;2022-10-16T02:41:48;12.50;99.90
38209;DHT22;24016;52.102;11.584;2022-10-16T02:44:14;12.50;99.90
38209;DHT22;24016;52.102;11.584;2022-10-16T02:46:40;12.50;99.90
38209;DHT22;24016;52.102;11.584;2022-10-16T02:49:05;12.40;99.90
38209;DHT22;24016;52.102;11.584;2022-10-16T02:51:31;12.40;99.90
38209;DHT22;24016;52.102;11.584;2022-10-16T02:53:56;12.40;99.90
38209;DHT22;24016;52.102;11.584;2022-10-16T02:56:22;12.50;99.90
38209;DHT22;24016;52.102;11.584;2022-10-16T02:58:47;12.40;99.90
38209;DHT22;24016;52.102;11.584;2022-10-16T03:01:13;12.50;99.90
38209;DHT22;24016;52.102;11.584;2022-10-16T03:03:42;12.40;99.90
38209;DHT22;24016;52.102;11.584;2022-10-16T03:06:07;12.50;99.90
38209;DHT22;24016;52.102;11.584;2022-10-16T03:08:33;12.60;99.90
38209;DHT22;24016;52.102;11.584;2022-10-16T03:10:58;12.60;99.90
38209;DHT22;24016;52.102;11.584;2022-10-16T03:13:24;12.70;99.90
38209;DHT22;24016;52.102;11.584;2022-10-16T03:15:49;12.70;99.90
38209;DHT22;24016;52.102;11.584;2022-10-16T03:18:15;12.70;99.90
38209;DHT22;24016;52.102;11.584;2022-10-16T03:20:42;12.70;99.90
38209;DHT22;24016;52.102;11.584;2022-10-16T03:23:08;12.80;99.90
38209;DHT22;24016;52.102;11.584;2022-10-16T03:25:33;12.80;99.90
38209;DHT22;24016;52.102;11.584;2022-10-16T03:27:59;12.90;99.90
38209;DHT22;24016;52.102;11.584;2022-10-16T03:30:25;12.90;99.90
38209;DHT22;24016;52.102;11.584;2022-10-16T03:32:50;12.90;99.90
38209;DHT22;24016;52.102;11.584;2022-10-16T03:35:22;12.90;99.90
38209;DHT22;24016;52.102;11.584;2022-10-16T03:37:48;13.00;99.90
38209;DHT22;24016;52.102;11.584;2022-10-16T03:40:14;13.00;99.90
38209;DHT22;24016;52.102;11.584;2022-10-16T03:42:41;13.10;99.90
38209;DHT22;24016;52.102;11.584;2022-10-16T03:45:07;13.10;99.90
38209;DHT22;24016;52.102;11.584;2022-10-16T03:47:33;13.20;99.90
38209;DHT22;24016;52.102;11.584;2022-10-16T03:49:59;13.20;99.90
38209;DHT22;24016;52.102;11.584;2022-10-16T03:52:25;13.20;99.90
38209;DHT22;24016;52.102;11.584;2022-10-16T03:54:51;13.20;99.90
38209;DHT22;24016;52.102;11.584;2022-10-16T03:57:17;13.30;99.90
38209;DHT22;24016;52.102;11.584;2022-10-16T03:59:42;13.20;99.90
38209;DHT22;24016;52.102;11.584;2022-10-16T04:02:08;13.30;99.90
38209;DHT22;24016;52.102;11.584;2022-10-16T04:04:34;13.30;99.90
38209;DHT22;24016;52.102;11.584;2022-10-16T04:07:00;13.30;99.90
38209;DHT22;24016;52.102;11.584;2022-10-16T04:09:25;13.30;99.90
38209;DHT22;24016;52.102;11.584;2022-10-16T04:11:51;13.30;99.90
38209;DHT22;24016;52.102;11.584;2022-10-16T04:14:17;13.40;99.90
38209;DHT22;24016;52.102;11.584;2022-10-16T04:16:42;13.30;99.90
38209;DHT22;24016;52.102;11.584;2022-10-16T04:19:09;13.30;99.90
38209;DHT22;24016;52.102;11.584;2022-10-16T04:21:35;13.30;99.90
38209;DHT22;24016;52.102;11.584;2022-10-16T04:24:00;13.40;99.90
38209;DHT22;24016;52.102;11.584;2022-10-16T04:26:26;13.40;99.90
38209;DHT22;24016;52.102;11.584;2022-10-16T04:28:51;13.40;99.90
38209;DHT22;24016;52.102;11.584;2022-10-16T04:31:17;13.30;99.90
38209;DHT22;24016;52.102;11.584;2022-10-16T04:33:43;13.30;99.90
38209;DHT22;24016;52.102;11.584;2022-10-16T04:36:09;13.30;99.90
38209;DHT22;24016;52.102;11.584;2022-10-16T04:38:34;13.30;99.90
38209;DHT22;24016;52.102;11.584;2022-10-16T04:41:00;13.30;99.90
38209;DHT22;24016;52.102;11.584;2022-10-16T04:43:25;13.30;99.90
38209;DHT22;24016;52.102;11.584;2022-10-16T04:45:51;13.30;99.90
38209;DHT22;24016;52.102;11.584;2022-10-16T04:48:17;13.40;99.90
38209;DHT22;24016;52.102;11.584;2022-10-16T04:50:43;13.40;99.90
38209;DHT22;24016;52.102;11.584;2022-10-16T04:53:09;13.50;99.90
38209;DHT22;24016;52.102;11.584;2022-10-16T04:55:34;13.40;99.90
38209;DHT22;24016;52.102;11.584;2022-10-16T04:58:00;13.30;99.90
38209;DHT22;24016;52.102;11.584;2022-10-16T05:00:26;13.30;99.90
38209;DHT22;24016;52.102;11.584;2022-10-16T05:02:51;13.20;99.90
38209;DHT22;24016;52.102;11.584;2022-10-16T05:05:17;13.10;99.90
38209;DHT22;24016;52.102;11.584;2022-10-16T05:07:45;13.00;99.90
38209;DHT22;24016;52.102;11.584;2022-10-16T05:10:11;13.00;99.90
38209;DHT22;24016;52.102;11.584;2022-10-16T05:12:36;12.80;99.90
38209;DHT22;24016;52.102;11.584;2022-10-16T05:15:02;12.80;99.90
38209;DHT22;24016;52.102;11.584;2022-10-16T05:17:28;12.60;99.90
38209;DHT22;24016;52.102;11.584;2022-10-16T05:19:53;12.50;99.90
38209;DHT22;24016;52.102;11.584;2022-10-16T05:22:19;12.40;99.90
38209;DHT22;24016;52.102;11.584;2022-10-16T05:24:45;12.30;99.90
38209;DHT22;24016;52.102;11.584;2022-10-16T05:27:10;12.30;99.90
38209;DHT22;24016;52.102;11.584;2022-10-16T05:29:37;12.30;99.90
38209;DHT22;24016;52.102;11.584;2022-10-16T05:32:03;12.30;99.90
38209;DHT22;24016;52.102;11.584;2022-10-16T05:34:28;12.30;99.90
38209;DHT22;24016;52.102;11.584;2022-10-16T05:36:54;12.40;99.90
38209;DHT22;24016;52.102;11.584;2022-10-16T05:39:20;12.40;99.90
38209;DHT22;24016;52.102;11.584;2022-10-16T05:41:46;12.30;99.90
38209;DHT22;24016;52.102;11.584;2022-10-16T05:44:11;12.30;99.90
38209;DHT22;24016;52.102;11.584;2022-10-16T05:46:37;12.20;99.90
38209;DHT22;24016;52.102;11.584;2022-10-16T05:49:03;12.20;99.90
38209;DHT22;24016;52.102;11.584;2022-10-16T05:51:28;12.20;99.90
38209;DHT22;24016;52.102;11.584;2022-10-16T05:53:54;12.20;99.90
38209;DHT22;24016;52.102;11.584;2022-10-16T05:56:19;12.30;99.90
38209;DHT22;24016;52.102;11.584;2022-10-16T05:58:45;12.40;99.90
38209;DHT22;24016;52.102;11.584;2022-10-16T06:01:13;12.60;99.90
38209;DHT22;24016;52.102;11.584;2022-10-16T06:03:39;12.60;99.90
38209;DHT22;24016;52.102;11.584;2022-10-16T06:06:14;12.60;99.90
38209;DHT22;24016;52.102;11.584;2022-10-16T06:08:40;12.60;99.90
38209;DHT22;24016;52.102;11.584;2022-10-16T06:11:09;12.60;99.90
38209;DHT22;24016;52.102;11.584;2022-10-16T06:13:35;12.60;99.90
38209;DHT22;24016;52.102;11.584;2022-10-16T06:16:02;12.70;99.90
38209;DHT22;24016;52.102;11.584;2022-10-16T06:18:28;12.80;99.90
38209;DHT22;24016;52.102;11.584;2022-10-16T06:20:55;12.80;99.90
38209;DHT22;24016;52.102;11.584;2022-10-16T06:23:21;12.90;99.90
38209;DHT22;24016;52.102;11.584;2022-10-16T06:25:47;13.00;99.90
38209;DHT22;24016;52.102;11.584;2022-10-16T06:28:16;13.10;99.90
38209;DHT22;24016;52.102;11.584;2022-10-16T06:30:42;13.10;99.90
38209;DHT22;24016;52.102;11.584;2022-10-16T06:33:10;13.10;99.90
38209;DHT22;24016;52.102;11.584;2022-10-16T06:35:35;13.20;99.90
38209;DHT22;24016;52.102;11.584;2022-10-16T06:38:01;13.20;99.90
38209;DHT22;24016;52.102;11.584;2022-10-16T06:40:27;13.30;99.90
38209;DHT22;24016;52.102;11.584;2022-10-16T06:42:55;13.40;99.90
38209;DHT22;24016;52.102;11.584;2022-10-16T06:45:20;13.50;99.90
38209;DHT22;24016;52.102;11.584;2022-10-16T06:47:46;13.50;99.90
38209;DHT22;24016;52.102;11.584;2022-10-16T06:50:11;13.50;99.90
38209;DHT22;24016;52.102;11.584;2022-10-16T06:52:37;13.50;99.90
38209;DHT22;24016;52.102;11.584;2022-10-16T06:55:03;13.50;99.90
38209;DHT22;24016;52.102;11.584;2022-10-16T06:57:28;13.50;99.90
38209;DHT22;24016;52.102;11.584;2022-10-16T06:59:54;13.60;99.90
38209;DHT22;24016;52.102;11.584;2022-10-16T07:02:19;13.70;99.90
38209;DHT22;24016;52.102;11.584;2022-10-16T07:04:45;13.70;99.90
38209;DHT22;24016;52.102;11.584;2022-10-16T07:07:10;13.80;99.90
38209;DHT22;24016;52.102;11.584;2022-10-16T07:09:36;13.90;99.90
38209;DHT22;24016;52.102;11.584;2022-10-16T07:12:01;14.00;99.90
38209;DHT22;24016;52.102;11.584;2022-10-16T07:14:27;14.00;99.90
38209;DHT22;24016;52.102;11.584;2022-10-16T07:16:53;14.10;99.90
38209;DHT22;24016;52.102;11.584;2022-10-16T07:19:18;14.10;99.90
38209;DHT22;24016;52.102;11.584;2022-10-16T07:21:44;14.20;99.90
38209;DHT22;24016;52.102;11.584;2022-10-16T07:24:14;14.20;99.90
38209;DHT22;24016;52.102;11.584;2022-10-16T07:26:41;14.10;99.90
38209;DHT22;24016;52.102;11.584;2022-10-16T07:29:12;14.10;99.90
38209;DHT22;24016;52.102;11.584;2022-10-16T07:31:38;14.10;99.90
38209;DHT22;24016;52.102;11.584;2022-10-16T07:34:04;14.20;99.90
38209;DHT22;24016;52.102;11.584;2022-10-16T07:36:29;14.30;99.90
38209;DHT22;24016;52.102;11.584;2022-10-16T07:38:55;14.40;99.90
38209;DHT22;24016;52.102;11.584;2022-10-16T07:41:21;14.50;99.90
38209;DHT22;24016;52.102;11.584;2022-10-16T07:43:51;14.40;99.90
38209;DHT22;24016;52.102;11.584;2022-10-16T07:46:19;14.40;99.90
38209;DHT22;24016;52.102;11.584;2022-10-16T07:48:45;14.50;99.90
38209;DHT22;24016;52.102;11.584;2022-10-16T07:51:14;14.70;99.90
38209;DHT22;24016;52.102;11.584;2022-10-16T07:53:40;14.80;99.90
38209;DHT22;24016;52.102;11.584;2022-10-16T07:56:07;14.80;99.90
38209;DHT22;24016;52.102;11.584;2022-10-16T07:58:33;14.70;99.90
38209;DHT22;24016;52.102;11.584;2022-10-16T08:00:59;14.60;99.90
38209;DHT22;24016;52.102;11.584;2022-10-16T08:03:27;14.50;99.90
38209;DHT22;24016;52.102;11.584;2022-10-16T08:05:53;14.50;99.90
38209;DHT22;24016;52.102;11.584;2022-10-16T08:08:19;14.40;99.90
38209;DHT22;24016;52.102;11.584;2022-10-16T08:10:44;14.40;99.90
38209;DHT22;24016;52.102;11.584;2022-10-16T08:13:10;14.30;99.90
38209;DHT22;24016;52.102;11.584;2022-10-16T08:15:36;14.20;99.90
38209;DHT22;24016;52.102;11.584;2022-10-16T08:18:03;14.20;99.90
38209;DHT22;24016;52.102;11.584;2022-10-16T08:20:30;14.20;99.90
38209;DHT22;24016;52.102;11.584;2022-10-16T08:22:56;14.50;99.90
38209;DHT22;24016;52.102;11.584;2022-10-16T08:25:23;14.80;99.90
38209;DHT22;24016;52.102;11.584;2022-10-16T08:27:49;15.10;99.90
38209;DHT22;24016;52.102;11.584;2022-10-16T08:30:16;15.60;99.90
38209;DHT22;24016;52.102;11.584;2022-10-16T08:32:42;16.10;99.90
38209;DHT22;24016;52.102;11.584;2022-10-16T08:35:09;16.80;99.90
38209;DHT22;24016;52.102;11.584;2022-10-16T08:37:35;17.40;99.90
38209;DHT22;24016;52.102;11.584;2022-10-16T08:40:01;17.60;99.90
38209;DHT22;24016;52.102;11.584;2022-10-16T08:42:43;17.70;99.90
38209;DHT22;24016;52.102;11.584;2022-10-16T08:45:21;17.60;99.90
38209;DHT22;24016;52.102;11.584;2022-10-16T08:50:50;17.20;99.90
38209;DHT22;24016;52.102;11.584;2022-10-16T08:53:38;17.30;99.90
38209;DHT22;24016;52.102;11.584;2022-10-16T08:56:07;17.50;99.90
38209;DHT22;24016;52.102;11.584;2022-10-16T08:58:32;17.60;99.90
38209;DHT22;24016;52.102;11.584;2022-10-16T09:01:01;17.60;99.90
38209;DHT22;24016;52.102;11.584;2022-10-16T09:03:43;17.70;99.90
38209;DHT22;24016;52.102;11.584;2022-10-16T09:22:48;17.90;99.90
38209;DHT22;24016;52.102;11.584;2022-10-16T09:25:20;17.70;99.90
38209;DHT22;24016;52.102;11.584;2022-10-16T09:27:48;17.60;99.90
38209;DHT22;24016;52.102;11.584;2022-10-16T09:30:19;17.40;99.90
38209;DHT22;24016;52.102;11.584;2022-10-16T09:32:48;17.30;99.90
38209;DHT22;24016;52.102;11.584;2022-10-16T09:35:20;17.30;99.90
38209;DHT22;24016;52.102;11.584;2022-10-16T09:37:49;17.40;99.90
38209;DHT22;24016;52.102;11.584;2022-10-16T09:40:33;17.70;99.90
38209;DHT22;24016;52.102;11.584;2022-10-16T09:45:43;17.80;99.90
38209;DHT22;24016;52.102;11.584;2022-10-16T09:48:19;18.00;99.90
38209;DHT22;24016;52.102;11.584;2022-10-16T09:50:56;18.10;99.90
38209;DHT22;24016;52.102;11.584;2022-10-16T09:53:21;18.20;99.90
38209;DHT22;24016;52.102;11.584;2022-10-16T09:55:52;18.30;99.90
38209;DHT22;24016;52.102;11.584;2022-10-16T09:58:21;18.50;99.90
38209;DHT22;24016;52.102;11.584;2022-10-16T10:00:54;18.80;99.90
38209;DHT22;24016;52.102;11.584;2022-10-16T10:03:36;19.50;99.90
38209;DHT22;24016;52.102;11.584;2022-10-16T10:06:18;20.10;99.90
38209;DHT22;24016;52.102;11.584;2022-10-16T10:09:37;20.30;99.90
38209;DHT22;24016;52.102;11.584;2022-10-16T10:11:50;20.60;99.90
38209;DHT22;24016;52.102;11.584;2022-10-16T10:14:37;21.20;99.90
38209;DHT22;24016;52.102;11.584;2022-10-16T10:19:58;21.10;99.90
38209;DHT22;24016;52.102;11.584;2022-10-16T10:22:31;20.80;99.90
38209;DHT22;24016;52.102;11.584;2022-10-16T10:36:33;18.90;99.90
38209;DHT22;24016;52.102;11.584;2022-10-16T10:39:00;18.90;99.90
38209;DHT22;24016;52.102;11.584;2022-10-16T10:44:19;19.60;99.90
38209;DHT22;24016;52.102;11.584;2022-10-16T10:46:57;19.40;99.90
38209;DHT22;24016;52.102;11.584;2022-10-16T10:49:31;19.40;99.90
38209;DHT22;24016;52.102;11.584;2022-10-16T11:00:28;19.20;99.90
38209;DHT22;24016;52.102;11.584;2022-10-16T11:05:35;19.40;99.90
38209;DHT22;24016;52.102;11.584;2022-10-16T11:10:52;20.60;99.90
38209;DHT22;24016;52.102;11.584;2022-10-16T11:13:45;21.70;99.90
38209;DHT22;24016;52.102;11.584;2022-10-16T11:19:03;23.00;99.90
38209;DHT22;24016;52.102;11.584;2022-10-16T11:21:34;23.30;99.90
38209;DHT22;24016;52.102;11.584;2022-10-16T11:24:53;23.60;99.90
38209;DHT22;24016;52.102;11.584;2022-10-16T11:27:03;23.40;99.90
38209;DHT22;24016;52.102;11.584;2022-10-16T11:29:29;24.00;99.90
38209;DHT22;24016;52.102;11.584;2022-10-16T11:32:33;24.20;99.90
38209;DHT22;24016;52.102;11.584;2022-10-16T11:35:08;23.50;99.90
38209;DHT22;24016;52.102;11.584;2022-10-16T11:37:42;23.40;99.90
38209;DHT22;24016;52.102;11.584;2022-10-16T11:40:20;22.90;99.90
38209;DHT22;24016;52.102;11.584;2022-10-16T11:43:24;22.50;99.90
38209;DHT22;24016;52.102;11.584;2022-10-16T11:45:49;22.60;99.90
38209;DHT22;24016;52.102;11.584;2022-10-16T11:50:53;22.20;99.90
38209;DHT22;24016;52.102;11.584;2022-10-16T11:53:38;22.40;99.90
38209;DHT22;24016;52.102;11.584;2022-10-16T11:56:04;21.40;99.90
38209;DHT22;24016;52.102;11.584;2022-10-16T12:01:40;19.40;99.90
38209;DHT22;24016;52.102;11.584;2022-10-16T12:07:06;18.90;99.90
38209;DHT22;24016;52.102;11.584;2022-10-16T12:09:35;18.90;99.90
38209;DHT22;24016;52.102;11.584;2022-10-16T12:12:01;18.80;99.90
38209;DHT22;24016;52.102;11.584;2022-10-16T12:17:23;18.60;99.90
38209;DHT22;24016;52.102;11.584;2022-10-16T12:20:21;18.60;99.90
38209;DHT22;24016;52.102;11.584;2022-10-16T12:22:50;18.40;99.90
38209;DHT22;24016;52.102;11.584;2022-10-16T12:25:29;18.60;99.90
38209;DHT22;24016;52.102;11.584;2022-10-16T12:28:04;18.90;99.90
38209;DHT22;24016;52.102;11.584;2022-10-16T12:30:34;19.20;99.90
38209;DHT22;24016;52.102;11.584;2022-10-16T12:33:05;19.30;99.90
38209;DHT22;24016;52.102;11.584;2022-10-16T12:35:43;19.10;99.90
38209;DHT22;24016;52.102;11.584;2022-10-16T12:38:25;19.20;99.90
38209;DHT22;24016;52.102;11.584;2022-10-16T12:40:59;19.20;99.90
38209;DHT22;24016;52.102;11.584;2022-10-16T12:43:28;19.20;99.90
38209;DHT22;24016;52.102;11.584;2022-10-16T12:48:40;19.60;99.90
38209;DHT22;24016;52.102;11.584;2022-10-16T12:51:25;19.60;99.90
38209;DHT22;24016;52.102;11.584;2022-10-16T12:54:10;19.50;99.90
38209;DHT22;24016;52.102;11.584;2022-10-16T13:05:08;18.80;99.90
38209;DHT22;24016;52.102;11.584;2022-10-16T13:07:53;18.50;99.90
38209;DHT22;24016;52.102;11.584;2022-10-16T13:10:36;18.40;99.90
38209;DHT22;24016;52.102;11.584;2022-10-16T13:13:16;18.30;99.90
38209;DHT22;24016;52.102;11.584;2022-10-16T13:16:06;18.30;99.90
38209;DHT22;24016;52.102;11.584;2022-10-16T13:24:30;18.50;99.90
38209;DHT22;24016;52.102;11.584;2022-10-16T13:27:51;18.70;99.90
38209;DHT22;24016;52.102;11.584;2022-10-16T13:30:24;18.80;99.90
38209;DHT22;24016;52.102;11.584;2022-10-16T13:33:13;18.90;99.90
38209;DHT22;24016;52.102;11.584;2022-10-16T13:35:51;18.90;99.90
38209;DHT22;24016;52.102;11.584;2022-10-16T13:38:23;19.00;99.90
38209;DHT22;24016;52.102;11.584;2022-10-16T13:43:32;19.00;99.90
38209;DHT22;24016;52.102;11.584;2022-10-16T13:48:28;19.10;99.90
38209;DHT22;24016;52.102;11.584;2022-10-16T13:51:12;19.10;99.90
38209;DHT22;24016;52.102;11.584;2022-10-16T13:53:39;19.10;99.90
38209;DHT22;24016;52.102;11.584;2022-10-16T13:56:09;19.10;99.90
38209;DHT22;24016;52.102;11.584;2022-10-16T13:58:35;19.10;99.90
38209;DHT22;24016;52.102;11.584;2022-10-16T14:01:28;19.10;99.90
38209;DHT22;24016;52.102;11.584;2022-10-16T14:03:52;19.10;99.90
38209;DHT22;24016;52.102;11.584;2022-10-16T14:06:20;19.00;99.90
38209;DHT22;24016;52.102;11.584;2022-10-16T14:08:55;19.00;99.90
38209;DHT22;24016;52.102;11.584;2022-10-16T14:11:23;19.00;99.90
38209;DHT22;24016;52.102;11.584;2022-10-16T14:13:50;19.00;99.90
38209;DHT22;24016;52.102;11.584;2022-10-16T14:16:22;18.90;99.90
38209;DHT22;24016;52.102;11.584;2022-10-16T14:19:19;18.90;99.90
38209;DHT22;24016;52.102;11.584;2022-10-16T14:21:45;18.90;99.90
38209;DHT22;24016;52.102;11.584;2022-10-16T14:24:13;18.80;99.90
38209;DHT22;24016;52.102;11.584;2022-10-16T14:26:43;18.80;99.90
38209;DHT22;24016;52.102;11.584;2022-10-16T14:29:14;18.80;99.90
38209;DHT22;24016;52.102;11.584;2022-10-16T14:31:40;18.70;99.90
38209;DHT22;24016;52.102;11.584;2022-10-16T14:34:26;18.70;99.90
38209;DHT22;24016;52.102;11.584;2022-10-16T14:36:53;18.60;99.90
38209;DHT22;24016;52.102;11.584;2022-10-16T14:39:21;18.40;99.90
38209;DHT22;24016;52.102;11.584;2022-10-16T14:41:49;18.20;99.90
38209;DHT22;24016;52.102;11.584;2022-10-16T14:44:17;18.20;99.90
38209;DHT22;24016;52.102;11.584;2022-10-16T14:46:43;18.00;99.90
38209;DHT22;24016;52.102;11.584;2022-10-16T14:51:36;17.80;99.90
38209;DHT22;24016;52.102;11.584;2022-10-16T14:54:02;17.90;99.90
38209;DHT22;24016;52.102;11.584;2022-10-16T14:56:54;18.00;99.90
38209;DHT22;24016;52.102;11.584;2022-10-16T15:01:56;18.10;99.90
38209;DHT22;24016;52.102;11.584;2022-10-16T15:04:22;18.20;99.90
38209;DHT22;24016;52.102;11.584;2022-10-16T15:06:47;18.20;99.90
38209;DHT22;24016;52.102;11.584;2022-10-16T15:09:13;18.20;99.90
38209;DHT22;24016;52.102;11.584;2022-10-16T15:11:39;18.20;99.90
38209;DHT22;24016;52.102;11.584;2022-10-16T15:14:05;18.20;99.90
38209;DHT22;24016;52.102;11.584;2022-10-16T15:16:31;18.10;99.90
38209;DHT22;24016;52.102;11.584;2022-10-16T15:18:57;18.00;99.90
38209;DHT22;24016;52.102;11.584;2022-10-16T15:21:31;18.00;99.90
38209;DHT22;24016;52.102;11.584;2022-10-16T15:23:58;17.90;99.90
38209;DHT22;24016;52.102;11.584;2022-10-16T15:26:26;17.90;99.90
38209;DHT22;24016;52.102;11.584;2022-10-16T15:28:52;17.80;99.90
38209;DHT22;24016;52.102;11.584;2022-10-16T15:31:17;17.70;99.90
38209;DHT22;24016;52.102;11.584;2022-10-16T15:33:43;17.60;99.90
38209;DHT22;24016;52.102;11.584;2022-10-16T15:36:09;17.40;99.90
38209;DHT22;24016;52.102;11.584;2022-10-16T15:38:35;17.30;99.90
38209;DHT22;24016;52.102;11.584;2022-10-16T15:41:00;17.20;99.90
38209;DHT22;24016;52.102;11.584;2022-10-16T15:43:26;17.10;99.90
38209;DHT22;24016;52.102;11.584;2022-10-16T15:46:04;17.00;99.90
38209;DHT22;24016;52.102;11.584;2022-10-16T15:48:32;16.90;99.90
38209;DHT22;24016;52.102;11.584;2022-10-16T15:50:58;16.70;99.90
38209;DHT22;24016;52.102;11.584;2022-10-16T15:53:24;16.50;99.90
38209;DHT22;24016;52.102;11.584;2022-10-16T15:55:49;16.40;99.90
38209;DHT22;24016;52.102;11.584;2022-10-16T15:58:15;16.20;99.90
38209;DHT22;24016;52.102;11.584;2022-10-16T16:00:40;16.00;99.90
38209;DHT22;24016;52.102;11.584;2022-10-16T16:03:06;15.90;99.90
38209;DHT22;24016;52.102;11.584;2022-10-16T16:05:32;15.80;99.90
38209;DHT22;24016;52.102;11.584;2022-10-16T16:07:58;15.60;99.90
38209;DHT22;24016;52.102;11.584;2022-10-16T16:10:24;15.50;99.90
38209;DHT22;24016;52.102;11.584;2022-10-16T16:12:50;15.30;99.90
38209;DHT22;24016;52.102;11.584;2022-10-16T16:15:19;15.20;99.90
38209;DHT22;24016;52.102;11.584;2022-10-16T16:17:45;15.10;99.90
38209;DHT22;24016;52.102;11.584;2022-10-16T16:20:11;14.90;99.90
38209;DHT22;24016;52.102;11.584;2022-10-16T16:22:37;14.80;99.90
38209;DHT22;24016;52.102;11.584;2022-10-16T16:25:03;14.70;99.90
38209;DHT22;24016;52.102;11.584;2022-10-16T16:27:29;14.60;99.90
38209;DHT22;24016;52.102;11.584;2022-10-16T16:29:58;14.50;99.90
38209;DHT22;24016;52.102;11.584;2022-10-16T16:32:24;14.40;99.90
38209;DHT22;24016;52.102;11.584;2022-10-16T16:34:49;14.20;99.90
38209;DHT22;24016;52.102;11.584;2022-10-16T16:37:15;14.10;99.90
38209;DHT22;24016;52.102;11.584;2022-10-16T16:39:41;14.00;99.90
38209;DHT22;24016;52.102;11.584;2022-10-16T16:42:06;13.90;99.90
38209;DHT22;24016;52.102;11.584;2022-10-16T16:44:33;13.80;99.90
38209;DHT22;24016;52.102;11.584;2022-10-16T16:47:01;13.70;99.90
38209;DHT22;24016;52.102;11.584;2022-10-16T16:49:27;13.70;99.90
38209;DHT22;24016;52.102;11.584;2022-10-16T16:51:53;13.50;99.90
38209;DHT22;24016;52.102;11.584;2022-10-16T16:54:19;13.50;99.90
38209;DHT22;24016;52.102;11.584;2022-10-16T16:56:44;13.40;99.90
38209;DHT22;24016;52.102;11.584;2022-10-16T16:59:13;13.40;99.90
38209;DHT22;24016;52.102;11.584;2022-10-16T17:01:39;13.30;99.90
38209;DHT22;24016;52.102;11.584;2022-10-16T17:04:05;13.30;99.90
38209;DHT22;24016;52.102;11.584;2022-10-16T17:06:31;13.30;99.90
38209;DHT22;24016;52.102;11.584;2022-10-16T17:08:57;13.20;99.90
38209;DHT22;24016;52.102;11.584;2022-10-16T17:11:26;13.10;99.90
38209;DHT22;24016;52.102;11.584;2022-10-16T17:13:53;13.00;99.90
38209;DHT22;24016;52.102;11.584;2022-10-16T17:16:21;12.90;99.90
38209;DHT22;24016;52.102;11.584;2022-10-16T17:18:46;12.80;99.90
38209;DHT22;24016;52.102;11.584;2022-10-16T17:21:12;12.70;99.90